createdAt,value
2018-01-25T00:00:57.489Z,0
2018-01-25T00:02:07.585Z,0
2018-01-25T00:03:17.482Z,0
2018-01-25T00:04:27.575Z,0
2018-01-25T00:05:37.663Z,0
2018-01-25T00:06:47.761Z,0
2018-01-25T00:07:57.844Z,0
2018-01-25T00:09:07.947Z,0
2018-01-25T00:10:18.041Z,0
2018-01-25T00:11:28.189Z,0
2018-01-25T00:12:38.280Z,0
2018-01-25T00:13:48.097Z,0
2018-01-25T00:14:58.189Z,0
2018-01-25T00:16:08.034Z,0
2018-01-25T00:17:18.132Z,0
2018-01-25T00:18:28.224Z,0
2018-01-25T00:19:38.040Z,0
2018-01-25T00:20:48.132Z,0
2018-01-25T00:21:57.950Z,0
2018-01-25T00:23:08.050Z,0
2018-01-25T00:24:17.595Z,0
2018-01-25T00:25:27.414Z,0
2018-01-25T00:26:37.554Z,0
2018-01-25T00:27:47.110Z,0
2018-01-25T00:28:57.201Z,0
2018-01-25T00:30:07.038Z,0
2018-01-25T00:31:16.858Z,0
2018-01-25T00:32:26.680Z,0
2018-01-25T00:33:36.768Z,0
2018-01-25T00:34:46.316Z,0
2018-01-25T00:35:56.407Z,0
2018-01-25T00:37:06.227Z,0
2018-01-25T00:38:15.782Z,0
2018-01-25T00:39:25.882Z,0
2018-01-25T00:40:35.973Z,0
2018-01-25T00:41:45.790Z,0
2018-01-25T00:42:55.889Z,0
2018-01-25T00:44:05.437Z,0
2018-01-25T00:45:15.589Z,0
2018-01-25T00:46:25.676Z,0
2018-01-25T00:47:35.492Z,0
2018-01-25T00:48:45.038Z,0
2018-01-25T00:49:54.857Z,0
2018-01-25T00:51:04.674Z,0
2018-01-25T00:52:14.771Z,0
2018-01-25T00:53:24.323Z,0
2018-01-25T00:54:34.421Z,0
2018-01-25T00:55:44.515Z,0
2018-01-25T00:56:54.343Z,0
2018-01-25T00:58:04.160Z,0
2018-01-25T00:59:13.981Z,0
2018-01-25T01:00:23.853Z,0
2018-01-25T01:01:33.943Z,0
2018-01-25T01:02:43.795Z,0
2018-01-25T01:03:53.882Z,0
2018-01-25T01:05:03.973Z,0
2018-01-25T01:06:13.252Z,0
2018-01-25T01:07:23.344Z,0
2018-01-25T01:08:33.428Z,0
2018-01-25T01:09:43.522Z,0
2018-01-25T01:10:53.617Z,0
2018-01-25T01:12:03.166Z,0
2018-01-25T01:13:13.264Z,0
2018-01-25T01:14:23.359Z,0
2018-01-25T01:15:33.443Z,0
2018-01-25T01:16:43.538Z,0
2018-01-25T01:17:53.739Z,0
2018-01-25T01:19:03.833Z,0
2018-01-25T01:20:13.383Z,0
2018-01-25T01:21:23.198Z,0
2018-01-25T01:22:33.068Z,0
2018-01-25T01:23:43.164Z,0
2018-01-25T01:24:53.255Z,0
2018-01-25T01:26:03.341Z,0
2018-01-25T01:27:13.159Z,0
2018-01-25T01:28:22.975Z,0
2018-01-25T01:29:33.066Z,0
2018-01-25T01:30:42.890Z,0
2018-01-25T01:31:52.710Z,0
2018-01-25T01:33:02.520Z,0
2018-01-25T01:34:12.338Z,0
2018-01-25T01:35:22.163Z,0
2018-01-25T01:36:32.253Z,0
2018-01-25T01:37:42.346Z,0
2018-01-25T01:38:52.439Z,0
2018-01-25T01:40:02.530Z,0
2018-01-25T01:41:12.616Z,0
2018-01-25T01:42:22.436Z,0
2018-01-25T01:43:32.520Z,0
2018-01-25T01:44:42.069Z,0
2018-01-25T01:45:51.615Z,0
2018-01-25T01:47:01.697Z,0
2018-01-25T01:48:11.791Z,0
2018-01-25T01:49:21.883Z,0
2018-01-25T01:50:31.934Z,0
2018-01-25T01:51:41.653Z,0
2018-01-25T01:52:51.729Z,0
2018-01-25T01:54:01.182Z,0
2018-01-25T01:55:10.914Z,0
2018-01-25T01:56:20.895Z,0
2018-01-25T01:57:30.876Z,0
2018-01-25T01:58:40.430Z,0
2018-01-25T01:59:50.415Z,0
2018-01-25T02:01:00.142Z,0
2018-01-25T02:02:10.132Z,0
2018-01-25T02:03:20.113Z,0
2018-01-25T02:04:30.096Z,0
2018-01-25T02:05:39.864Z,0
2018-01-25T02:06:49.644Z,0
2018-01-25T02:07:59.692Z,0
2018-01-25T02:09:09.462Z,0
2018-01-25T02:10:19.180Z,0
2018-01-25T02:11:28.901Z,0
2018-01-25T02:12:38.619Z,0
2018-01-25T02:13:48.605Z,0
2018-01-25T02:14:58.598Z,0
2018-01-25T02:16:08.322Z,0
2018-01-25T02:17:18.044Z,0
2018-01-25T02:18:27.766Z,0
2018-01-25T02:19:37.491Z,0
2018-01-25T02:20:47.480Z,0
2018-01-25T02:21:57.463Z,0
2018-01-25T02:23:07.449Z,0
2018-01-25T02:24:17.176Z,0
2018-01-25T02:25:27.161Z,0
2018-01-25T02:26:36.893Z,0
2018-01-25T02:27:46.913Z,0
2018-01-25T02:28:56.630Z,0
2018-01-25T02:30:06.617Z,0
2018-01-25T02:31:16.078Z,0
2018-01-25T02:32:26.065Z,0
2018-01-25T02:33:35.837Z,0
2018-01-25T02:34:45.554Z,0
2018-01-25T02:35:55.282Z,0
2018-01-25T02:37:05.003Z,0
2018-01-25T02:38:14.734Z,0
2018-01-25T02:39:24.456Z,0
2018-01-25T02:40:34.443Z,0
2018-01-25T02:41:44.174Z,0
2018-01-25T02:42:53.904Z,0
2018-01-25T02:44:03.903Z,0
2018-01-25T02:45:13.625Z,0
2018-01-25T02:46:23.620Z,0
2018-01-25T02:47:33.344Z,0
2018-01-25T02:48:43.068Z,0
2018-01-25T02:49:52.788Z,0
2018-01-25T02:51:02.785Z,0
2018-01-25T02:52:12.771Z,0
2018-01-25T02:53:22.501Z,0
2018-01-25T02:54:32.231Z,0
2018-01-25T02:55:41.952Z,0
2018-01-25T02:56:51.958Z,0
2018-01-25T02:58:01.415Z,0
2018-01-25T02:59:11.133Z,0
2018-01-25T03:00:20.858Z,0
2018-01-25T03:01:30.869Z,0
2018-01-25T03:02:40.959Z,0
2018-01-25T03:03:50.948Z,0
2018-01-25T03:05:00.670Z,0
2018-01-25T03:06:10.656Z,0
2018-01-25T03:07:20.434Z,0
2018-01-25T03:08:30.469Z,0
2018-01-25T03:09:40.190Z,0
2018-01-25T03:10:50.173Z,0
2018-01-25T03:12:00.148Z,0
2018-01-25T03:13:09.866Z,0
2018-01-25T03:14:19.849Z,0
2018-01-25T03:15:29.566Z,0
2018-01-25T03:16:39.548Z,0
2018-01-25T03:17:49.529Z,0
2018-01-25T03:18:59.511Z,0
2018-01-25T03:20:09.229Z,0
2018-01-25T03:21:19.257Z,0
2018-01-25T03:22:29.245Z,0
2018-01-25T03:23:38.962Z,0
2018-01-25T03:24:48.944Z,0
2018-01-25T03:25:58.931Z,0
2018-01-25T03:27:08.649Z,0
2018-01-25T03:28:18.374Z,0
2018-01-25T03:29:28.360Z,0
2018-01-25T03:30:38.081Z,0
2018-01-25T03:31:47.537Z,0
2018-01-25T03:32:57.261Z,0
2018-01-25T03:34:07.248Z,0
2018-01-25T03:35:16.705Z,0
2018-01-25T03:36:26.684Z,0
2018-01-25T03:37:36.458Z,0
2018-01-25T03:38:46.178Z,0
2018-01-25T03:39:56.165Z,0
2018-01-25T03:41:05.884Z,0
2018-01-25T03:42:15.606Z,0
2018-01-25T03:43:25.592Z,0
2018-01-25T03:44:35.312Z,0
2018-01-25T03:45:45.303Z,0
2018-01-25T03:46:55.286Z,0
2018-01-25T03:48:05.268Z,0
2018-01-25T03:49:15.017Z,0
2018-01-25T03:50:25.013Z,0
2018-01-25T03:51:34.994Z,0
2018-01-25T03:52:44.982Z,0
2018-01-25T03:53:55.002Z,0
2018-01-25T03:55:04.719Z,0
2018-01-25T03:56:13.910Z,0
2018-01-25T03:57:23.891Z,0
2018-01-25T03:58:33.879Z,0
2018-01-25T03:59:43.598Z,0
2018-01-25T04:03:31.888Z,0
2018-01-25T04:04:41.600Z,0
2018-01-25T04:05:51.614Z,0
2018-01-25T04:07:01.332Z,0
2018-01-25T04:08:10.780Z,0
2018-01-25T04:09:20.762Z,0
2018-01-25T04:10:30.481Z,0
2018-01-25T04:11:40.463Z,0
2018-01-25T04:12:50.453Z,0
2018-01-25T04:14:00.434Z,0
2018-01-25T04:15:10.160Z,0
2018-01-25T04:16:19.349Z,0
2018-01-25T04:17:29.343Z,0
2018-01-25T04:18:39.321Z,0
2018-01-25T04:19:49.034Z,0
2018-01-25T04:20:58.759Z,0
2018-01-25T04:22:08.223Z,0
2018-01-25T04:23:18.203Z,0
2018-01-25T04:24:28.189Z,0
2018-01-25T04:25:37.905Z,0
2018-01-25T04:26:47.355Z,0
2018-01-25T04:27:56.545Z,0
2018-01-25T04:29:06.535Z,0
2018-01-25T04:30:16.515Z,0
2018-01-25T04:31:26.509Z,0
2018-01-25T04:32:36.547Z,0
2018-01-25T04:33:46.001Z,0
2018-01-25T04:34:55.725Z,0
2018-01-25T04:36:05.449Z,0
2018-01-25T04:37:15.429Z,0
2018-01-25T04:38:25.514Z,0
2018-01-25T04:39:35.553Z,0
2018-01-25T04:40:45.530Z,0
2018-01-25T04:41:55.250Z,0
2018-01-25T04:43:05.244Z,0
2018-01-25T04:44:15.228Z,0
2018-01-25T04:45:25.213Z,0
2018-01-25T04:46:35.198Z,0
2018-01-25T04:47:45.181Z,0
2018-01-25T04:48:55.166Z,0
2018-01-25T04:50:05.143Z,0
2018-01-25T04:51:14.863Z,0
2018-01-25T04:52:24.839Z,0
2018-01-25T04:53:34.571Z,0
2018-01-25T04:54:44.025Z,0
2018-01-25T04:55:54.013Z,0
2018-01-25T04:57:03.475Z,0
2018-01-25T04:58:12.932Z,0
2018-01-25T04:59:22.668Z,0
2018-01-25T05:00:32.719Z,0
2018-01-25T05:01:42.702Z,0
2018-01-25T05:02:52.418Z,0
2018-01-25T05:04:02.404Z,0
2018-01-25T05:05:12.122Z,0
2018-01-25T05:06:22.109Z,0
2018-01-25T05:07:32.095Z,0
2018-01-25T05:08:42.078Z,0
2018-01-25T05:09:52.068Z,0
2018-01-25T05:11:01.781Z,0
2018-01-25T05:12:11.767Z,0
2018-01-25T05:13:21.226Z,0
2018-01-25T05:14:31.218Z,0
2018-01-25T05:15:41.199Z,0
2018-01-25T05:16:51.188Z,0
2018-01-25T05:18:01.174Z,0
2018-01-25T05:19:10.685Z,0
2018-01-25T05:20:20.684Z,0
2018-01-25T05:21:30.407Z,0
2018-01-25T05:22:40.446Z,0
2018-01-25T05:23:50.433Z,0
2018-01-25T05:25:00.420Z,0
2018-01-25T05:26:10.413Z,0
2018-01-25T05:27:20.455Z,0
2018-01-25T05:28:30.177Z,0
2018-01-25T05:29:39.953Z,0
2018-01-25T05:30:49.407Z,0
2018-01-25T05:31:59.402Z,0
2018-01-25T05:33:09.391Z,0
2018-01-25T05:34:19.376Z,0
2018-01-25T05:35:29.361Z,0
2018-01-25T05:36:39.227Z,0
2018-01-25T05:37:49.211Z,0
2018-01-25T05:38:59.202Z,0
2018-01-25T05:40:08.670Z,0
2018-01-25T05:41:18.124Z,0
2018-01-25T05:42:28.155Z,0
2018-01-25T05:43:37.919Z,0
2018-01-25T05:44:47.911Z,0
2018-01-25T05:45:57.632Z,0
2018-01-25T05:47:07.355Z,0
2018-01-25T05:48:17.075Z,0
2018-01-25T05:49:26.797Z,0
2018-01-25T05:50:36.786Z,0
2018-01-25T05:51:46.771Z,0
2018-01-25T05:52:56.232Z,0
2018-01-25T05:54:06.215Z,0
2018-01-25T05:55:16.200Z,0
2018-01-25T05:56:26.192Z,0
2018-01-25T05:57:35.906Z,0
2018-01-25T05:58:45.941Z,0
2018-01-25T05:59:55.668Z,0
2018-01-25T06:01:05.658Z,0
2018-01-25T06:02:15.423Z,0
2018-01-25T06:03:25.160Z,0
2018-01-25T06:04:34.885Z,0
2018-01-25T06:05:44.610Z,0
2018-01-25T06:06:54.595Z,0
2018-01-25T06:08:04.585Z,0
2018-01-25T06:09:14.565Z,0
2018-01-25T06:10:24.547Z,0
2018-01-25T06:11:34.021Z,0
2018-01-25T06:12:43.479Z,0
2018-01-25T06:13:53.468Z,0
2018-01-25T06:15:03.455Z,0
2018-01-25T06:16:12.924Z,0
2018-01-25T06:17:22.381Z,0
2018-01-25T06:18:32.099Z,0
2018-01-25T06:19:42.083Z,0
2018-01-25T06:20:51.799Z,0
2018-01-25T06:22:01.517Z,0
2018-01-25T06:23:11.502Z,0
2018-01-25T06:24:21.222Z,0
2018-01-25T06:25:30.944Z,0
2018-01-25T06:26:40.708Z,0
2018-01-25T06:27:50.735Z,0
2018-01-25T06:29:00.563Z,0
2018-01-25T06:30:10.288Z,0
2018-01-25T06:31:19.744Z,0
2018-01-25T06:32:29.735Z,0
2018-01-25T06:33:39.454Z,0
2018-01-25T06:34:49.438Z,0
2018-01-25T06:35:59.430Z,0
2018-01-25T06:37:08.892Z,0
2018-01-25T06:38:18.882Z,0
2018-01-25T06:39:28.599Z,0
2018-01-25T06:40:38.052Z,0
2018-01-25T06:41:48.037Z,0
2018-01-25T06:42:58.133Z,0
2018-01-25T06:44:07.327Z,0
2018-01-25T06:45:17.324Z,0
2018-01-25T06:46:27.049Z,0
2018-01-25T06:47:36.767Z,0
2018-01-25T06:48:46.489Z,0
2018-01-25T06:49:56.479Z,0
2018-01-25T06:51:06.262Z,0
2018-01-25T06:52:15.773Z,0
2018-01-25T06:53:24.971Z,0
2018-01-25T06:54:34.962Z,0
2018-01-25T06:55:44.949Z,0
2018-01-25T06:56:54.668Z,0
2018-01-25T06:58:04.149Z,0
2018-01-25T06:59:13.340Z,0
2018-01-25T07:00:23.328Z,0
2018-01-25T07:01:33.316Z,0
2018-01-25T07:02:43.298Z,0
2018-01-25T07:03:53.281Z,0
2018-01-25T07:05:03.001Z,0
2018-01-25T07:06:12.197Z,4
2018-01-25T07:07:21.648Z,4
2018-01-25T07:08:31.376Z,4
2018-01-25T07:09:40.834Z,4
2018-01-25T07:10:50.818Z,0
2018-01-25T07:12:00.815Z,4
2018-01-25T07:13:10.532Z,4
2018-01-25T07:14:19.990Z,8
2018-01-25T07:15:29.971Z,4
2018-01-25T07:16:39.955Z,8
2018-01-25T07:17:49.413Z,8
2018-01-25T07:18:59.412Z,12
2018-01-25T07:20:08.870Z,12
2018-01-25T07:21:18.322Z,12
2018-01-25T07:22:27.540Z,16
2018-01-25T07:23:37.539Z,16
2018-01-25T07:24:47.530Z,20
2018-01-25T07:25:57.509Z,20
2018-01-25T07:27:07.330Z,24
2018-01-25T07:28:17.056Z,28
2018-01-25T07:29:26.775Z,36
2018-01-25T07:30:36.766Z,40
2018-01-25T07:31:46.747Z,44
2018-01-25T07:32:56.472Z,48
2018-01-25T07:34:06.457Z,60
2018-01-25T07:35:15.934Z,68
2018-01-25T07:36:25.919Z,72
2018-01-25T07:37:35.902Z,84
2018-01-25T07:38:45.357Z,92
2018-01-25T07:39:55.353Z,104
2018-01-25T07:41:04.560Z,112
2018-01-25T07:42:14.292Z,124
2018-01-25T07:43:24.281Z,132
2018-01-25T07:44:34.266Z,148
2018-01-25T07:45:43.727Z,160
2018-01-25T07:46:53.449Z,168
2018-01-25T07:48:03.172Z,184
2018-01-25T07:49:12.364Z,196
2018-01-25T07:50:22.085Z,212
2018-01-25T07:51:32.073Z,228
2018-01-25T07:52:42.061Z,244
2018-01-25T07:53:52.048Z,260
2018-01-25T07:55:01.769Z,272
2018-01-25T07:56:11.289Z,288
2018-01-25T07:57:21.291Z,308
2018-01-25T07:58:43.738Z,324
2018-01-25T07:59:53.460Z,344
2018-01-25T08:01:03.449Z,364
2018-01-25T08:02:12.965Z,384
2018-01-25T08:03:22.951Z,404
2018-01-25T08:04:32.935Z,424
2018-01-25T08:05:42.973Z,448
2018-01-25T08:06:56.314Z,476
2018-01-25T08:08:06.298Z,500
2018-01-25T08:09:15.489Z,524
2018-01-25T08:10:25.208Z,548
2018-01-25T08:11:34.395Z,576
2018-01-25T08:12:44.165Z,604
2018-01-25T08:13:54.155Z,632
2018-01-25T08:15:04.146Z,656
2018-01-25T08:16:13.875Z,688
2018-01-25T08:17:23.380Z,716
2018-01-25T08:18:33.098Z,748
2018-01-25T08:19:42.823Z,776
2018-01-25T08:20:52.545Z,808
2018-01-25T08:22:02.531Z,836
2018-01-25T08:23:12.253Z,872
2018-01-25T08:24:21.856Z,896
2018-01-25T08:25:31.584Z,936
2018-01-25T08:26:41.310Z,968
2018-01-25T08:27:51.030Z,1000
2018-01-25T08:29:00.754Z,1036
2018-01-25T08:30:10.583Z,1072
2018-01-25T08:31:20.304Z,1104
2018-01-25T08:32:30.342Z,1136
2018-01-25T08:33:40.329Z,1168
2018-01-25T08:34:50.056Z,1200
2018-01-25T08:36:00.095Z,1228
2018-01-25T08:37:09.867Z,1260
2018-01-25T08:38:19.322Z,1292
2018-01-25T08:39:29.046Z,1332
2018-01-25T08:40:38.764Z,1368
2018-01-25T08:41:48.905Z,1412
2018-01-25T08:42:58.921Z,1440
2018-01-25T08:44:08.930Z,1460
2018-01-25T08:45:18.663Z,1484
2018-01-25T08:46:28.120Z,1508
2018-01-25T08:47:37.837Z,1544
2018-01-25T08:48:47.823Z,1584
2018-01-25T08:49:57.544Z,1612
2018-01-25T08:51:07.267Z,1644
2018-01-25T08:52:17.249Z,1664
2018-01-25T08:53:27.236Z,1688
2018-01-25T08:54:36.696Z,1720
2018-01-25T08:55:46.682Z,1776
2018-01-25T08:56:56.668Z,1824
2018-01-25T08:58:06.657Z,1868
2018-01-25T08:59:16.127Z,1904
2018-01-25T09:00:25.649Z,1936
2018-01-25T09:01:35.106Z,1960
2018-01-25T09:02:44.828Z,1988
2018-01-25T09:03:54.810Z,2004
2018-01-25T09:05:04.583Z,2020
2018-01-25T09:06:14.039Z,2060
2018-01-25T09:07:24.025Z,2120
2018-01-25T09:08:33.795Z,2176
2018-01-25T09:09:43.516Z,2224
2018-01-25T09:10:53.511Z,2272
2018-01-25T09:12:03.258Z,2336
2018-01-25T09:13:12.430Z,2404
2018-01-25T09:14:22.150Z,2452
2018-01-25T09:15:31.871Z,2500
2018-01-25T09:16:41.326Z,2532
2018-01-25T09:17:51.042Z,2556
2018-01-25T09:19:01.034Z,2604
2018-01-25T09:20:10.753Z,2664
2018-01-25T09:21:20.733Z,2720
2018-01-25T09:22:30.189Z,2776
2018-01-25T09:23:39.911Z,2844
2018-01-25T09:24:49.901Z,2896
2018-01-25T09:25:59.889Z,2940
2018-01-25T09:27:09.884Z,2968
2018-01-25T09:28:19.608Z,2996
2018-01-25T09:29:29.601Z,3040
2018-01-25T09:30:39.321Z,3100
2018-01-25T09:31:49.042Z,3156
2018-01-25T09:32:58.758Z,3204
2018-01-25T09:34:08.213Z,3260
2018-01-25T09:35:18.194Z,3332
2018-01-25T09:36:28.181Z,3404
2018-01-25T09:37:37.901Z,3488
2018-01-25T09:38:47.900Z,3576
2018-01-25T09:39:57.363Z,3660
2018-01-25T09:41:07.091Z,3740
2018-01-25T09:42:16.547Z,3804
2018-01-25T09:43:26.669Z,3852
2018-01-25T09:44:36.128Z,3884
2018-01-25T09:45:46.262Z,3908
2018-01-25T09:46:55.984Z,3924
2018-01-25T09:48:05.969Z,3948
2018-01-25T09:49:15.769Z,4008
2018-01-25T09:50:25.756Z,4096
2018-01-25T09:51:35.595Z,4156
2018-01-25T09:52:45.598Z,4240
2018-01-25T09:53:55.597Z,4328
2018-01-25T09:55:05.356Z,4416
2018-01-25T09:56:14.784Z,4500
2018-01-25T09:57:24.513Z,4536
2018-01-25T09:58:34.501Z,4568
2018-01-25T09:59:44.593Z,4572
2018-01-25T10:00:54.065Z,4532
2018-01-25T10:02:04.097Z,4500
2018-01-25T10:03:13.816Z,4488
2018-01-25T10:04:23.536Z,4484
2018-01-25T10:05:32.991Z,4532
2018-01-25T10:06:42.715Z,4564
2018-01-25T10:07:52.441Z,4588
2018-01-25T10:09:02.324Z,4616
2018-01-25T10:10:11.783Z,4628
2018-01-25T10:11:21.573Z,4636
2018-01-25T10:12:31.599Z,4632
2018-01-25T10:13:41.324Z,4536
2018-01-25T10:14:51.317Z,4484
2018-01-25T10:16:00.791Z,4568
2018-01-25T10:17:10.517Z,4620
2018-01-25T10:18:20.502Z,4696
2018-01-25T10:19:30.486Z,4712
2018-01-25T10:20:40.257Z,4604
2018-01-25T10:21:50.255Z,4500
2018-01-25T10:23:00.238Z,4436
2018-01-25T10:24:09.696Z,4432
2018-01-25T10:25:19.423Z,4448
2018-01-25T10:26:29.151Z,4464
2018-01-25T10:27:38.608Z,4508
2018-01-25T10:28:48.327Z,4572
2018-01-25T10:29:58.051Z,4600
2018-01-25T10:31:07.845Z,4604
2018-01-25T10:32:17.404Z,4620
2018-01-25T10:33:26.864Z,4660
2018-01-25T10:34:36.861Z,4756
2018-01-25T10:35:46.849Z,4880
2018-01-25T10:36:56.894Z,5096
2018-01-25T10:38:06.880Z,5196
2018-01-25T10:39:16.936Z,5248
2018-01-25T10:40:26.925Z,5300
2018-01-25T10:41:36.967Z,5268
2018-01-25T10:42:46.433Z,5420
2018-01-25T10:43:55.624Z,5652
2018-01-25T10:45:05.348Z,5708
2018-01-25T10:46:14.846Z,5712
2018-01-25T10:47:24.575Z,5680
2018-01-25T10:48:34.562Z,5680
2018-01-25T10:49:44.285Z,5728
2018-01-25T10:50:54.270Z,5860
2018-01-25T10:52:04.260Z,5992
2018-01-25T10:53:14.056Z,6328
2018-01-25T10:54:23.778Z,9008
2018-01-25T10:55:33.770Z,10000
2018-01-25T10:56:43.490Z,11052
2018-01-25T10:57:53.477Z,10188
2018-01-25T10:59:03.462Z,8760
2018-01-25T11:00:13.188Z,9188
2018-01-25T11:01:22.647Z,9472
2018-01-25T11:02:32.637Z,10812
2018-01-25T11:03:42.636Z,10188
2018-01-25T11:04:52.627Z,9080
2018-01-25T11:06:02.349Z,8868
2018-01-25T11:07:12.073Z,7436
2018-01-25T11:08:21.878Z,6820
2018-01-25T11:09:31.601Z,6752
2018-01-25T11:10:41.339Z,6872
2018-01-25T11:11:51.066Z,6796
2018-01-25T11:13:00.838Z,6488
2018-01-25T11:14:10.833Z,6312
2018-01-25T11:15:20.555Z,6296
2018-01-25T11:16:30.014Z,6316
2018-01-25T11:17:40.000Z,6364
2018-01-25T11:18:49.775Z,6400
2018-01-25T11:19:59.759Z,6276
2018-01-25T11:21:09.482Z,6240
2018-01-25T11:22:19.204Z,6240
2018-01-25T11:23:29.198Z,6232
2018-01-25T11:24:39.188Z,6076
2018-01-25T11:25:48.651Z,6380
2018-01-25T11:26:58.371Z,6240
2018-01-25T11:28:08.096Z,6220
2018-01-25T11:29:17.554Z,6196
2018-01-25T11:30:27.538Z,6192
2018-01-25T11:31:37.313Z,6192
2018-01-25T11:32:47.345Z,6180
2018-01-25T11:33:57.350Z,6172
2018-01-25T11:35:07.073Z,6152
2018-01-25T11:36:16.801Z,6132
2018-01-25T11:37:26.555Z,6132
2018-01-25T11:38:36.277Z,6124
2018-01-25T11:39:46.267Z,6128
2018-01-25T11:40:56.256Z,6120
2018-01-25T11:42:05.982Z,6124
2018-01-25T11:43:15.985Z,6140
2018-01-25T11:44:25.712Z,6140
2018-01-25T11:45:35.707Z,6124
2018-01-25T11:46:45.701Z,6128
2018-01-25T11:47:55.158Z,6132
2018-01-25T11:49:05.155Z,6132
2018-01-25T11:50:15.144Z,6128
2018-01-25T11:51:24.864Z,6116
2018-01-25T11:52:34.626Z,6100
2018-01-25T11:53:44.347Z,6116
2018-01-25T11:54:54.328Z,6132
2018-01-25T11:56:04.050Z,6232
2018-01-25T11:57:13.513Z,6076
2018-01-25T11:58:23.237Z,6120
2018-01-25T11:59:33.229Z,6320
2018-01-25T12:00:42.951Z,6408
2018-01-25T12:01:52.936Z,6208
2018-01-25T12:03:03.409Z,6292
2018-01-25T12:04:13.397Z,6120
2018-01-25T12:05:23.407Z,6168
2018-01-25T12:06:33.131Z,6340
2018-01-25T12:07:42.588Z,6304
2018-01-25T12:08:52.309Z,6772
2018-01-25T12:10:02.034Z,6548
2018-01-25T12:11:12.021Z,6452
2018-01-25T12:12:21.741Z,6452
2018-01-25T12:13:31.461Z,6496
2018-01-25T12:14:41.448Z,6596
2018-01-25T12:15:51.171Z,6012
2018-01-25T12:17:01.154Z,6068
2018-01-25T12:18:10.872Z,5936
2018-01-25T12:19:20.064Z,5752
2018-01-25T12:20:30.053Z,5724
2018-01-25T12:21:39.788Z,5672
2018-01-25T12:22:49.822Z,5548
2018-01-25T12:23:59.278Z,5488
2018-01-25T12:25:08.738Z,5460
2018-01-25T12:26:18.192Z,5400
2018-01-25T12:27:28.177Z,5320
2018-01-25T12:28:38.224Z,5252
2018-01-25T12:29:48.215Z,5176
2018-01-25T12:30:57.939Z,5140
2018-01-25T12:32:07.393Z,5132
2018-01-25T12:33:17.381Z,5112
2018-01-25T12:34:27.140Z,5100
2018-01-25T12:35:36.863Z,5104
2018-01-25T12:36:46.855Z,5096
2018-01-25T12:37:56.577Z,5060
2018-01-25T12:39:06.566Z,5024
2018-01-25T12:40:16.291Z,4980
2018-01-25T12:41:26.275Z,4940
2018-01-25T12:42:35.998Z,4888
2018-01-25T12:43:45.724Z,4856
2018-01-25T12:44:55.444Z,4804
2018-01-25T12:46:05.429Z,4748
2018-01-25T12:47:15.246Z,4688
2018-01-25T12:48:25.234Z,4644
2018-01-25T12:49:34.966Z,4604
2018-01-25T12:50:44.951Z,4548
2018-01-25T12:51:54.823Z,4484
2018-01-25T12:53:04.545Z,4428
2018-01-25T12:54:14.273Z,4376
2018-01-25T12:55:24.261Z,4332
2018-01-25T12:56:34.251Z,4284
2018-01-25T12:57:43.977Z,4216
2018-01-25T12:58:53.704Z,4144
2018-01-25T13:00:03.430Z,4088
2018-01-25T13:01:13.180Z,4020
2018-01-25T13:02:23.162Z,3952
2018-01-25T13:03:33.152Z,3880
2018-01-25T13:04:43.131Z,3808
2018-01-25T13:05:52.856Z,3760
2018-01-25T13:07:02.592Z,3720
2018-01-25T13:08:12.045Z,3684
2018-01-25T13:09:21.500Z,3644
2018-01-25T13:10:31.215Z,3592
2018-01-25T13:11:41.198Z,3532
2018-01-25T13:12:50.925Z,3480
2018-01-25T13:14:00.921Z,3440
2018-01-25T13:15:10.640Z,3380
2018-01-25T13:16:20.364Z,3304
2018-01-25T13:17:30.085Z,3216
2018-01-25T13:18:40.071Z,3156
2018-01-25T13:19:50.054Z,3104
2018-01-25T13:20:59.915Z,3044
2018-01-25T13:22:09.368Z,2976
2018-01-25T13:23:18.827Z,2900
2018-01-25T13:24:28.560Z,2828
2018-01-25T13:25:38.275Z,2760
2018-01-25T13:26:47.734Z,2704
2018-01-25T13:27:57.513Z,2652
2018-01-25T13:29:07.503Z,2588
2018-01-25T13:30:17.282Z,2548
2018-01-25T13:31:27.008Z,2520
2018-01-25T13:32:37.045Z,2476
2018-01-25T13:33:46.835Z,2428
2018-01-25T13:34:56.820Z,2396
2018-01-25T13:36:06.542Z,2380
2018-01-25T13:37:16.008Z,2376
2018-01-25T13:38:25.734Z,2364
2018-01-25T13:39:35.725Z,2340
2018-01-25T13:40:45.448Z,2316
2018-01-25T13:41:55.177Z,2264
2018-01-25T13:43:05.168Z,2196
2018-01-25T13:44:14.938Z,2132
2018-01-25T13:45:24.931Z,2064
2018-01-25T13:46:34.934Z,2000
2018-01-25T13:47:44.657Z,1952
2018-01-25T13:48:54.386Z,1924
2018-01-25T13:50:03.945Z,1868
2018-01-25T13:51:13.397Z,1816
2018-01-25T13:52:23.116Z,1788
2018-01-25T13:53:33.098Z,1756
2018-01-25T13:54:43.082Z,1708
2018-01-25T13:55:53.065Z,1628
2018-01-25T13:57:02.796Z,1548
2018-01-25T13:58:12.518Z,1492
2018-01-25T13:59:22.510Z,1472
2018-01-25T14:00:32.501Z,1464
2018-01-25T14:01:41.956Z,1440
2018-01-25T14:02:51.939Z,1412
2018-01-25T14:04:01.669Z,1376
2018-01-25T14:05:11.415Z,1352
2018-01-25T14:06:21.141Z,1336
2018-01-25T14:07:31.138Z,1308
2018-01-25T14:08:41.119Z,1288
2018-01-25T14:09:50.867Z,1264
2018-01-25T14:11:00.598Z,1248
2018-01-25T14:12:10.598Z,1248
2018-01-25T14:13:20.103Z,1248
2018-01-25T14:14:29.821Z,1248
2018-01-25T14:15:39.274Z,1236
2018-01-25T14:16:49.258Z,1212
2018-01-25T14:17:59.242Z,1180
2018-01-25T14:19:08.700Z,1152
2018-01-25T14:20:18.206Z,1124
2018-01-25T14:21:27.927Z,1096
2018-01-25T14:22:37.920Z,1064
2018-01-25T14:23:48.151Z,1016
2018-01-25T14:24:57.879Z,968
2018-01-25T14:26:07.905Z,912
2018-01-25T14:27:17.625Z,868
2018-01-25T14:28:27.610Z,824
2018-01-25T14:29:37.327Z,776
2018-01-25T14:30:47.364Z,744
2018-01-25T14:31:57.088Z,720
2018-01-25T14:33:06.807Z,704
2018-01-25T14:34:16.524Z,680
2018-01-25T14:35:26.248Z,644
2018-01-25T14:36:36.228Z,604
2018-01-25T14:37:45.683Z,564
2018-01-25T14:38:55.666Z,524
2018-01-25T14:40:05.121Z,488
2018-01-25T14:41:14.849Z,452
2018-01-25T14:42:24.569Z,424
2018-01-25T14:43:34.554Z,404
2018-01-25T14:44:44.535Z,376
2018-01-25T14:45:54.257Z,352
2018-01-25T14:47:04.245Z,328
2018-01-25T14:48:13.968Z,312
2018-01-25T14:49:23.424Z,288
2018-01-25T14:50:33.411Z,272
2018-01-25T14:51:43.399Z,256
2018-01-25T14:52:52.856Z,240
2018-01-25T14:54:02.841Z,224
2018-01-25T14:55:12.837Z,208
2018-01-25T14:56:22.287Z,200
2018-01-25T14:57:32.006Z,188
2018-01-25T14:58:41.991Z,176
2018-01-25T14:59:51.713Z,168
2018-01-25T15:01:01.442Z,160
2018-01-25T15:02:11.424Z,156
2018-01-25T15:03:20.878Z,148
2018-01-25T15:04:30.580Z,140
2018-01-25T15:05:40.761Z,132
2018-01-25T15:06:50.484Z,124
2018-01-25T15:08:00.464Z,120
2018-01-25T15:09:10.181Z,108
2018-01-25T15:10:19.902Z,100
2018-01-25T15:11:28.927Z,96
2018-01-25T15:12:38.909Z,88
2018-01-25T15:13:48.900Z,76
2018-01-25T15:14:58.885Z,68
2018-01-25T15:16:08.603Z,64
2018-01-25T15:17:18.781Z,56
2018-01-25T15:18:28.766Z,48
2018-01-25T15:19:38.279Z,44
2018-01-25T15:20:48.262Z,36
2018-01-25T15:21:58.312Z,36
2018-01-25T15:23:08.296Z,32
2018-01-25T15:24:18.281Z,28
2018-01-25T15:25:28.266Z,24
2018-01-25T15:26:38.248Z,24
2018-01-25T15:27:47.956Z,20
2018-01-25T15:28:57.792Z,16
2018-01-25T15:30:07.781Z,16
2018-01-25T15:31:17.502Z,12
2018-01-25T15:32:27.486Z,12
2018-01-25T15:33:37.595Z,8
2018-01-25T15:34:47.366Z,8
2018-01-25T15:35:57.159Z,8
2018-01-25T15:37:06.880Z,8
2018-01-25T15:38:16.606Z,8
2018-01-25T15:39:26.586Z,4
2018-01-25T15:40:36.572Z,8
2018-01-25T15:41:45.764Z,4
2018-01-25T15:42:55.483Z,4
2018-01-25T15:44:05.207Z,4
2018-01-25T15:45:15.191Z,4
2018-01-25T15:46:25.424Z,4
2018-01-25T15:47:35.383Z,0
2018-01-25T15:48:45.429Z,0
2018-01-25T15:49:55.429Z,4
2018-01-25T15:51:04.883Z,4
2018-01-25T15:52:14.390Z,4
2018-01-25T15:53:24.373Z,0
2018-01-25T15:54:34.096Z,0
2018-01-25T15:55:43.817Z,0
2018-01-25T15:56:53.538Z,0
2018-01-25T15:58:03.525Z,0
2018-01-25T15:59:13.245Z,0
2018-01-25T16:00:22.967Z,0
2018-01-25T16:01:32.959Z,0
2018-01-25T16:02:42.683Z,0
2018-01-25T16:03:52.675Z,0
2018-01-25T16:05:02.690Z,0
2018-01-25T16:06:12.740Z,0
2018-01-25T16:07:22.395Z,0
2018-01-25T16:08:32.378Z,0
2018-01-25T16:09:42.093Z,0
2018-01-25T16:10:51.817Z,0
2018-01-25T16:12:01.858Z,0
2018-01-25T16:13:11.578Z,0
2018-01-25T16:14:21.596Z,0
2018-01-25T16:15:31.681Z,0
2018-01-25T16:16:41.748Z,0
2018-01-25T16:17:51.732Z,0
2018-01-25T16:19:01.722Z,0
2018-01-25T16:20:11.447Z,0
2018-01-25T16:21:21.492Z,0
2018-01-25T16:22:31.208Z,0
2018-01-25T16:23:41.193Z,0
2018-01-25T16:24:50.917Z,0
2018-01-25T16:26:00.906Z,0
2018-01-25T16:27:10.463Z,0